sensor_id;sensor_type;location;lat;lon;timestamp;pressure;altitude;pressure_sealevel;temperature;humidity
28344;BME280;15597;50.914;6.638;2023-03-04T00:00:27;101787.13;;;7.26;52.05
28344;BME280;15597;50.914;6.638;2023-03-04T00:02:53;101796.66;;;7.24;52.56
28344;BME280;15597;50.914;6.638;2023-03-04T00:05:18;101788.81;;;7.21;52.73
28344;BME280;15597;50.914;6.638;2023-03-04T00:07:45;101788.81;;;7.19;52.63
28344;BME280;15597;50.914;6.638;2023-03-04T00:10:11;101796.63;;;7.19;52.56
28344;BME280;15597;50.914;6.638;2023-03-04T00:12:37;101784.47;;;7.18;52.76
28344;BME280;15597;50.914;6.638;2023-03-04T00:15:02;101790.53;;;7.19;53.14
28344;BME280;15597;50.914;6.638;2023-03-04T00:17:28;101794.88;;;7.18;52.69
28344;BME280;15597;50.914;6.638;2023-03-04T00:19:57;101792.28;;;7.20;52.78
28344;BME280;15597;50.914;6.638;2023-03-04T00:22:24;101787.97;;;7.20;53.11
28344;BME280;15597;50.914;6.638;2023-03-04T00:24:49;101784.50;;;7.21;53.45
28344;BME280;15597;50.914;6.638;2023-03-04T00:27:15;101786.25;;;7.24;53.61
28344;BME280;15597;50.914;6.638;2023-03-04T00:29:40;101786.28;;;7.25;53.31
28344;BME280;15597;50.914;6.638;2023-03-04T00:32:06;101787.13;;;7.26;53.50
28344;BME280;15597;50.914;6.638;2023-03-04T00:34:32;101788.03;;;7.28;53.44
28344;BME280;15597;50.914;6.638;2023-03-04T00:36:57;101783.72;;;7.28;53.15
28344;BME280;15597;50.914;6.638;2023-03-04T00:39:28;101787.16;;;7.29;52.68
28344;BME280;15597;50.914;6.638;2023-03-04T00:41:54;101779.41;;;7.32;52.84
28344;BME280;15597;50.914;6.638;2023-03-04T00:44:20;101780.28;;;7.34;52.87
28344;BME280;15597;50.914;6.638;2023-03-04T00:46:45;101778.56;;;7.36;53.26
28344;BME280;15597;50.914;6.638;2023-03-04T00:49:12;101778.59;;;7.39;53.54
28344;BME280;15597;50.914;6.638;2023-03-04T00:51:38;101778.59;;;7.39;53.71
28344;BME280;15597;50.914;6.638;2023-03-04T00:54:03;101776.88;;;7.41;53.57
28344;BME280;15597;50.914;6.638;2023-03-04T00:56:29;101783.03;;;7.45;53.52
28344;BME280;15597;50.914;6.638;2023-03-04T00:58:55;101775.25;;;7.47;53.37
28344;BME280;15597;50.914;6.638;2023-03-04T01:01:21;101770.88;;;7.47;53.72
28344;BME280;15597;50.914;6.638;2023-03-04T01:03:46;101770.03;;;7.48;53.11
28344;BME280;15597;50.914;6.638;2023-03-04T01:06:12;101774.38;;;7.49;53.14
28344;BME280;15597;50.914;6.638;2023-03-04T01:08:38;101778.72;;;7.49;53.17
28344;BME280;15597;50.914;6.638;2023-03-04T01:11:04;101770.03;;;7.47;53.66
28344;BME280;15597;50.914;6.638;2023-03-04T01:13:30;101768.28;;;7.45;53.21
28344;BME280;15597;50.914;6.638;2023-03-04T01:15:56;101763.03;;;7.42;53.85
28344;BME280;15597;50.914;6.638;2023-03-04T01:18:22;101759.53;;;7.40;53.09
28344;BME280;15597;50.914;6.638;2023-03-04T01:20:48;101760.38;;;7.39;53.26
28344;BME280;15597;50.914;6.638;2023-03-04T01:23:13;101760.38;;;7.38;53.26
28344;BME280;15597;50.914;6.638;2023-03-04T01:25:40;101756.03;;;7.38;53.68
28344;BME280;15597;50.914;6.638;2023-03-04T01:28:06;101752.56;;;7.39;53.27
28344;BME280;15597;50.914;6.638;2023-03-04T01:30:31;101749.97;;;7.38;53.90
28344;BME280;15597;50.914;6.638;2023-03-04T01:32:57;101758.63;;;7.37;53.69
28344;BME280;15597;50.914;6.638;2023-03-04T01:35:23;101749.06;;;7.37;53.76
28344;BME280;15597;50.914;6.638;2023-03-04T01:37:48;101743.88;;;7.36;53.58
28344;BME280;15597;50.914;6.638;2023-03-04T01:40:14;101737.78;;;7.35;53.86
28344;BME280;15597;50.914;6.638;2023-03-04T01:42:39;101742.09;;;7.33;53.74
28344;BME280;15597;50.914;6.638;2023-03-04T01:45:06;101736.03;;;7.33;53.42
28344;BME280;15597;50.914;6.638;2023-03-04T01:47:33;101736.84;;;7.30;54.11
28344;BME280;15597;50.914;6.638;2023-03-04T01:50:02;101729.00;;;7.27;54.11
28344;BME280;15597;50.914;6.638;2023-03-04T01:52:29;101730.75;;;7.26;53.67
28344;BME280;15597;50.914;6.638;2023-03-04T01:54:54;101727.25;;;7.24;53.75
28344;BME280;15597;50.914;6.638;2023-03-04T01:57:23;101728.97;;;7.24;53.61
28344;BME280;15597;50.914;6.638;2023-03-04T02:00:16;101725.47;;;7.22;54.50
28344;BME280;15597;50.914;6.638;2023-03-04T02:02:45;101719.41;;;7.21;54.15
28344;BME280;15597;50.914;6.638;2023-03-04T02:05:12;101713.34;;;7.22;54.12
28344;BME280;15597;50.914;6.638;2023-03-04T02:07:39;101728.13;;;7.25;54.08
28344;BME280;15597;50.914;6.638;2023-03-04T02:10:05;101716.84;;;7.26;53.55
28344;BME280;15597;50.914;6.638;2023-03-04T02:12:30;101710.78;;;7.27;53.97
28344;BME280;15597;50.914;6.638;2023-03-04T02:14:57;101708.22;;;7.30;53.76
28344;BME280;15597;50.914;6.638;2023-03-04T02:17:26;101714.28;;;7.29;53.59
28344;BME280;15597;50.914;6.638;2023-03-04T02:22:30;101709.13;;;7.34;54.34
28344;BME280;15597;50.914;6.638;2023-03-04T02:25:02;101709.09;;;7.32;54.54
28344;BME280;15597;50.914;6.638;2023-03-04T02:27:31;101704.81;;;7.36;54.42
28344;BME280;15597;50.914;6.638;2023-03-04T02:29:57;101716.09;;;7.39;53.84
28344;BME280;15597;50.914;6.638;2023-03-04T02:32:22;101706.59;;;7.41;53.92
28344;BME280;15597;50.914;6.638;2023-03-04T02:34:49;101698.81;;;7.44;54.01
28344;BME280;15597;50.914;6.638;2023-03-04T02:37:16;101699.69;;;7.45;54.24
28344;BME280;15597;50.914;6.638;2023-03-04T02:39:45;101700.56;;;7.45;53.64
28344;BME280;15597;50.914;6.638;2023-03-04T02:42:11;101701.47;;;7.48;54.38
28344;BME280;15597;50.914;6.638;2023-03-04T02:44:40;101701.47;;;7.48;54.65
28344;BME280;15597;50.914;6.638;2023-03-04T02:47:09;101695.41;;;7.52;54.56
28344;BME280;15597;50.914;6.638;2023-03-04T02:49:37;101699.78;;;7.56;54.30
28344;BME280;15597;50.914;6.638;2023-03-04T02:52:16;101691.97;;;7.56;53.76
28344;BME280;15597;50.914;6.638;2023-03-04T02:54:43;101697.25;;;7.62;54.12
28344;BME280;15597;50.914;6.638;2023-03-04T02:57:11;101691.16;;;7.65;54.00
28344;BME280;15597;50.914;6.638;2023-03-04T02:59:41;101693.81;;;7.68;53.31
28344;BME280;15597;50.914;6.638;2023-03-04T03:02:08;101692.09;;;7.70;53.97
28344;BME280;15597;50.914;6.638;2023-03-04T03:04:37;101693.81;;;7.71;53.95
28344;BME280;15597;50.914;6.638;2023-03-04T03:07:07;101694.72;;;7.73;53.93
28344;BME280;15597;50.914;6.638;2023-03-04T03:09:33;101697.31;;;7.73;54.06
28344;BME280;15597;50.914;6.638;2023-03-04T03:11:58;101690.38;;;7.73;53.48
28344;BME280;15597;50.914;6.638;2023-03-04T03:14:24;101693.88;;;7.75;53.99
28344;BME280;15597;50.914;6.638;2023-03-04T03:16:51;101686.06;;;7.77;53.31
28344;BME280;15597;50.914;6.638;2023-03-04T03:19:16;101680.84;;;7.77;53.76
28344;BME280;15597;50.914;6.638;2023-03-04T03:21:42;101681.72;;;7.78;53.30
28344;BME280;15597;50.914;6.638;2023-03-04T03:24:09;101671.31;;;7.78;53.16
28344;BME280;15597;50.914;6.638;2023-03-04T03:26:35;101682.59;;;7.77;53.32
28344;BME280;15597;50.914;6.638;2023-03-04T03:29:00;101683.47;;;7.79;53.46
28344;BME280;15597;50.914;6.638;2023-03-04T03:31:27;101676.53;;;7.78;53.40
28344;BME280;15597;50.914;6.638;2023-03-04T03:33:52;101678.28;;;7.79;53.35
28344;BME280;15597;50.914;6.638;2023-03-04T03:36:18;101668.69;;;7.76;53.23
28344;BME280;15597;50.914;6.638;2023-03-04T03:38:44;101667.81;;;7.72;52.85
28344;BME280;15597;50.914;6.638;2023-03-04T03:41:09;101664.31;;;7.70;53.19
28344;BME280;15597;50.914;6.638;2023-03-04T03:43:35;101659.09;;;7.70;53.11
28344;BME280;15597;50.914;6.638;2023-03-04T03:46:01;101659.09;;;7.70;53.65
28344;BME280;15597;50.914;6.638;2023-03-04T03:48:26;101659.97;;;7.71;53.25
28344;BME280;15597;50.914;6.638;2023-03-04T03:50:52;101664.31;;;7.70;53.77
28344;BME280;15597;50.914;6.638;2023-03-04T03:53:17;101662.56;;;7.69;53.54
28344;BME280;15597;50.914;6.638;2023-03-04T03:55:43;101662.56;;;7.69;53.55
28344;BME280;15597;50.914;6.638;2023-03-04T03:58:08;101665.16;;;7.69;53.73
28344;BME280;15597;50.914;6.638;2023-03-04T04:00:34;101660.81;;;7.68;53.55
28344;BME280;15597;50.914;6.638;2023-03-04T04:03:00;101663.41;;;7.70;53.58
28344;BME280;15597;50.914;6.638;2023-03-04T04:05:26;101653.91;;;7.70;53.95
28344;BME280;15597;50.914;6.638;2023-03-04T04:07:52;101659.13;;;7.73;54.21
28344;BME280;15597;50.914;6.638;2023-03-04T04:10:17;101650.44;;;7.74;53.73
28344;BME280;15597;50.914;6.638;2023-03-04T04:12:43;101655.66;;;7.74;53.63
28344;BME280;15597;50.914;6.638;2023-03-04T04:15:10;101653.94;;;7.77;53.33
28344;BME280;15597;50.914;6.638;2023-03-04T04:17:37;101653.06;;;7.78;53.45
28344;BME280;15597;50.914;6.638;2023-03-04T04:20:04;101658.28;;;7.79;53.61
28344;BME280;15597;50.914;6.638;2023-03-04T04:22:29;101659.16;;;7.80;53.57
28344;BME280;15597;50.914;6.638;2023-03-04T04:24:55;101651.34;;;7.81;54.15
28344;BME280;15597;50.914;6.638;2023-03-04T04:27:20;101653.09;;;7.81;53.41
28344;BME280;15597;50.914;6.638;2023-03-04T04:29:46;101660.03;;;7.80;53.51
28344;BME280;15597;50.914;6.638;2023-03-04T04:32:13;101667.84;;;7.79;53.49
28344;BME280;15597;50.914;6.638;2023-03-04T04:34:39;101662.63;;;7.75;53.60
28344;BME280;15597;50.914;6.638;2023-03-04T04:37:04;101664.34;;;7.73;53.62
28344;BME280;15597;50.914;6.638;2023-03-04T04:39:30;101653.00;;;7.70;53.99
28344;BME280;15597;50.914;6.638;2023-03-04T04:41:56;101666.03;;;7.68;54.10
28344;BME280;15597;50.914;6.638;2023-03-04T04:44:21;101665.13;;;7.65;54.31
28344;BME280;15597;50.914;6.638;2023-03-04T04:46:47;101667.72;;;7.63;53.75
28344;BME280;15597;50.914;6.638;2023-03-04T04:49:12;101661.59;;;7.59;54.32
28344;BME280;15597;50.914;6.638;2023-03-04T04:51:38;101661.59;;;7.59;54.09
28344;BME280;15597;50.914;6.638;2023-03-04T04:54:04;101662.47;;;7.57;54.47
28344;BME280;15597;50.914;6.638;2023-03-04T04:56:30;101662.47;;;7.57;54.22
28344;BME280;15597;50.914;6.638;2023-03-04T04:58:57;101659.84;;;7.55;54.40
28344;BME280;15597;50.914;6.638;2023-03-04T05:01:24;101661.56;;;7.53;54.43
28344;BME280;15597;50.914;6.638;2023-03-04T05:03:50;101663.28;;;7.51;54.65
28344;BME280;15597;50.914;6.638;2023-03-04T05:06:18;101657.19;;;7.48;54.41
28344;BME280;15597;50.914;6.638;2023-03-04T05:08:44;101660.69;;;7.50;54.25
28344;BME280;15597;50.914;6.638;2023-03-04T05:11:10;101662.41;;;7.48;54.24
28344;BME280;15597;50.914;6.638;2023-03-04T05:13:35;101658.06;;;7.47;54.91
28344;BME280;15597;50.914;6.638;2023-03-04T05:16:01;101671.06;;;7.47;54.18
28344;BME280;15597;50.914;6.638;2023-03-04T05:18:27;101662.41;;;7.48;54.77
28344;BME280;15597;50.914;6.638;2023-03-04T05:20:54;101662.41;;;7.48;54.79
28344;BME280;15597;50.914;6.638;2023-03-04T05:23:20;101658.06;;;7.47;54.62
28344;BME280;15597;50.914;6.638;2023-03-04T05:25:46;101660.69;;;7.50;54.39
28344;BME280;15597;50.914;6.638;2023-03-04T05:28:12;101664.13;;;7.50;54.78
28344;BME280;15597;50.914;6.638;2023-03-04T05:30:38;101663.31;;;7.53;54.85
28344;BME280;15597;50.914;6.638;2023-03-04T05:33:05;101657.25;;;7.54;54.62
28344;BME280;15597;50.914;6.638;2023-03-04T05:35:36;101664.13;;;7.45;54.31
28344;BME280;15597;50.914;6.638;2023-03-04T05:38:03;101662.38;;;7.44;54.51
28344;BME280;15597;50.914;6.638;2023-03-04T05:40:29;101672.81;;;7.48;55.20
28344;BME280;15597;50.914;6.638;2023-03-04T05:42:55;101668.50;;;7.51;55.23
28344;BME280;15597;50.914;6.638;2023-03-04T05:45:21;101668.53;;;7.56;54.55
28344;BME280;15597;50.914;6.638;2023-03-04T05:47:47;101673.78;;;7.59;54.62
28344;BME280;15597;50.914;6.638;2023-03-04T05:50:12;101677.25;;;7.63;54.32
28344;BME280;15597;50.914;6.638;2023-03-04T05:52:38;101672.94;;;7.63;54.72
28344;BME280;15597;50.914;6.638;2023-03-04T05:55:04;101678.19;;;7.66;55.08
28344;BME280;15597;50.914;6.638;2023-03-04T05:57:30;101683.41;;;7.69;54.31
28344;BME280;15597;50.914;6.638;2023-03-04T05:59:55;101682.56;;;7.70;54.82
28344;BME280;15597;50.914;6.638;2023-03-04T06:02:21;101676.47;;;7.71;54.29
28344;BME280;15597;50.914;6.638;2023-03-04T06:04:46;101681.69;;;7.71;54.53
28344;BME280;15597;50.914;6.638;2023-03-04T06:07:12;101685.19;;;7.73;54.64
28344;BME280;15597;50.914;6.638;2023-03-04T06:09:37;101679.09;;;7.74;54.75
28344;BME280;15597;50.914;6.638;2023-03-04T06:12:03;101686.06;;;7.75;54.62
28344;BME280;15597;50.914;6.638;2023-03-04T06:14:29;101686.06;;;7.77;54.51
28344;BME280;15597;50.914;6.638;2023-03-04T06:16:54;101687.81;;;7.78;54.02
28344;BME280;15597;50.914;6.638;2023-03-04T06:19:20;101686.94;;;7.78;54.42
28344;BME280;15597;50.914;6.638;2023-03-04T06:21:45;101686.94;;;7.78;54.56
28344;BME280;15597;50.914;6.638;2023-03-04T06:24:11;101685.19;;;7.77;54.10
28344;BME280;15597;50.914;6.638;2023-03-04T06:26:37;101691.28;;;7.75;54.97
28344;BME280;15597;50.914;6.638;2023-03-04T06:29:04;101695.59;;;7.73;54.46
28344;BME280;15597;50.914;6.638;2023-03-04T06:31:29;101695.59;;;7.73;54.27
28344;BME280;15597;50.914;6.638;2023-03-04T06:33:55;101692.97;;;7.70;54.46
28344;BME280;15597;50.914;6.638;2023-03-04T06:36:20;101696.44;;;7.69;54.92
28344;BME280;15597;50.914;6.638;2023-03-04T06:38:46;101695.53;;;7.69;55.00
28344;BME280;15597;50.914;6.638;2023-03-04T06:41:12;101699.91;;;7.70;54.42
28344;BME280;15597;50.914;6.638;2023-03-04T06:43:38;101700.78;;;7.70;54.76
28344;BME280;15597;50.914;6.638;2023-03-04T06:46:04;101705.13;;;7.71;54.89
28344;BME280;15597;50.914;6.638;2023-03-04T06:48:30;101703.41;;;7.73;54.39
28344;BME280;15597;50.914;6.638;2023-03-04T06:50:56;101707.75;;;7.74;54.46
28344;BME280;15597;50.914;6.638;2023-03-04T06:53:22;101709.50;;;7.75;54.95
28344;BME280;15597;50.914;6.638;2023-03-04T06:55:47;101716.47;;;7.78;54.53
28344;BME280;15597;50.914;6.638;2023-03-04T06:58:14;101711.28;;;7.80;54.19
28344;BME280;15597;50.914;6.638;2023-03-04T07:00:42;101713.88;;;7.81;54.34
28344;BME280;15597;50.914;6.638;2023-03-04T07:03:10;101713.03;;;7.81;54.65
28344;BME280;15597;50.914;6.638;2023-03-04T07:05:36;101722.59;;;7.82;54.42
28344;BME280;15597;50.914;6.638;2023-03-04T07:08:01;101721.72;;;7.83;54.36
28344;BME280;15597;50.914;6.638;2023-03-04T07:10:27;101713.06;;;7.84;54.70
28344;BME280;15597;50.914;6.638;2023-03-04T07:12:52;101713.91;;;7.84;54.36
28344;BME280;15597;50.914;6.638;2023-03-04T07:15:18;101721.75;;;7.86;54.38
28344;BME280;15597;50.914;6.638;2023-03-04T07:17:43;101720.88;;;7.87;54.39
28344;BME280;15597;50.914;6.638;2023-03-04T07:20:09;101721.75;;;7.86;54.60
28344;BME280;15597;50.914;6.638;2023-03-04T07:22:35;101726.97;;;7.86;54.24
28344;BME280;15597;50.914;6.638;2023-03-04T07:25:01;101725.22;;;7.85;54.47
28344;BME280;15597;50.914;6.638;2023-03-04T07:27:27;101731.25;;;7.81;54.78
28344;BME280;15597;50.914;6.638;2023-03-04T07:29:52;101730.38;;;7.79;54.82
28344;BME280;15597;50.914;6.638;2023-03-04T07:32:18;101732.13;;;7.80;54.89
28344;BME280;15597;50.914;6.638;2023-03-04T07:34:43;101728.66;;;7.81;55.23
28344;BME280;15597;50.914;6.638;2023-03-04T07:37:09;101735.63;;;7.82;55.05
28344;BME280;15597;50.914;6.638;2023-03-04T07:39:34;101736.50;;;7.85;55.22
28344;BME280;15597;50.914;6.638;2023-03-04T07:42:00;101744.38;;;7.90;54.58
28344;BME280;15597;50.914;6.638;2023-03-04T07:44:26;101740.91;;;7.91;55.31
28344;BME280;15597;50.914;6.638;2023-03-04T07:46:51;101745.25;;;7.92;54.68
28344;BME280;15597;50.914;6.638;2023-03-04T07:49:17;101741.75;;;7.92;54.68
28344;BME280;15597;50.914;6.638;2023-03-04T07:51:43;101744.41;;;7.93;54.72
28344;BME280;15597;50.914;6.638;2023-03-04T07:54:09;101743.50;;;7.93;54.71
28344;BME280;15597;50.914;6.638;2023-03-04T07:56:35;101739.19;;;7.93;54.64
28344;BME280;15597;50.914;6.638;2023-03-04T07:59:01;101744.41;;;7.93;54.76
28344;BME280;15597;50.914;6.638;2023-03-04T08:01:29;101734.81;;;7.94;54.88
28344;BME280;15597;50.914;6.638;2023-03-04T08:03:55;101741.72;;;7.88;55.11
28344;BME280;15597;50.914;6.638;2023-03-04T08:06:21;101740.91;;;7.91;55.40
28344;BME280;15597;50.914;6.638;2023-03-04T08:08:48;101737.44;;;7.94;54.87
28344;BME280;15597;50.914;6.638;2023-03-04T08:11:16;101734.00;;;7.96;55.09
28344;BME280;15597;50.914;6.638;2023-03-04T08:13:43;101740.97;;;8.00;54.73
28344;BME280;15597;50.914;6.638;2023-03-04T08:16:11;101734.94;;;8.03;54.92
28344;BME280;15597;50.914;6.638;2023-03-04T08:18:41;101739.25;;;8.02;55.17
28344;BME280;15597;50.914;6.638;2023-03-04T08:21:08;101742.72;;;8.01;54.82
28344;BME280;15597;50.914;6.638;2023-03-04T08:23:34;101739.25;;;8.02;55.44
28344;BME280;15597;50.914;6.638;2023-03-04T08:26:05;101741.00;;;8.03;55.13
28344;BME280;15597;50.914;6.638;2023-03-04T08:28:31;101752.34;;;8.07;55.23
28344;BME280;15597;50.914;6.638;2023-03-04T08:30:57;101750.59;;;8.08;55.39
28344;BME280;15597;50.914;6.638;2023-03-04T08:33:22;101751.47;;;8.10;54.92
28344;BME280;15597;50.914;6.638;2023-03-04T08:35:48;101749.72;;;8.09;55.24
28344;BME280;15597;50.914;6.638;2023-03-04T08:38:13;101744.50;;;8.09;55.12
28344;BME280;15597;50.914;6.638;2023-03-04T08:40:39;101748.84;;;8.07;54.90
28344;BME280;15597;50.914;6.638;2023-03-04T08:43:05;101761.88;;;8.07;55.48
28344;BME280;15597;50.914;6.638;2023-03-04T08:45:30;101754.09;;;8.11;55.40
28344;BME280;15597;50.914;6.638;2023-03-04T08:47:56;101760.19;;;8.10;55.28
28344;BME280;15597;50.914;6.638;2023-03-04T08:50:21;101753.22;;;8.11;55.05
28344;BME280;15597;50.914;6.638;2023-03-04T08:52:47;101760.19;;;8.10;55.03
28344;BME280;15597;50.914;6.638;2023-03-04T08:55:13;101763.63;;;8.11;55.27
28344;BME280;15597;50.914;6.638;2023-03-04T08:57:38;101768.03;;;8.13;55.62
28344;BME280;15597;50.914;6.638;2023-03-04T09:00:04;101767.13;;;8.13;55.68
28344;BME280;15597;50.914;6.638;2023-03-04T09:02:31;101768.03;;;8.13;55.50
28344;BME280;15597;50.914;6.638;2023-03-04T09:04:56;101764.56;;;8.14;55.31
28344;BME280;15597;50.914;6.638;2023-03-04T09:07:23;101764.56;;;8.19;55.44
28344;BME280;15597;50.914;6.638;2023-03-04T09:09:48;101765.47;;;8.23;55.52
28344;BME280;15597;50.914;6.638;2023-03-04T09:12:14;101760.25;;;8.24;55.86
28344;BME280;15597;50.914;6.638;2023-03-04T09:14:39;101755.06;;;8.27;55.95
28344;BME280;15597;50.914;6.638;2023-03-04T09:17:08;101752.50;;;8.29;55.52
28344;BME280;15597;50.914;6.638;2023-03-04T09:19:34;101743.81;;;8.30;55.51
28344;BME280;15597;50.914;6.638;2023-03-04T09:21:59;101741.19;;;8.31;55.76
28344;BME280;15597;50.914;6.638;2023-03-04T09:24:26;101741.19;;;8.31;55.66
28344;BME280;15597;50.914;6.638;2023-03-04T09:26:52;101753.38;;;8.34;55.75
28344;BME280;15597;50.914;6.638;2023-03-04T09:29:19;101751.66;;;8.38;55.60
28344;BME280;15597;50.914;6.638;2023-03-04T09:31:45;101751.66;;;8.41;55.61
28344;BME280;15597;50.914;6.638;2023-03-04T09:34:11;101756.91;;;8.42;55.66
28344;BME280;15597;50.914;6.638;2023-03-04T09:36:38;101750.81;;;8.42;55.22
28344;BME280;15597;50.914;6.638;2023-03-04T09:39:03;101744.75;;;8.44;56.16
28344;BME280;15597;50.914;6.638;2023-03-04T09:41:36;101749.97;;;8.46;55.99
28344;BME280;15597;50.914;6.638;2023-03-04T09:44:23;101745.63;;;8.46;56.14
28344;BME280;15597;50.914;6.638;2023-03-04T09:46:51;101750.06;;;8.52;55.88
28344;BME280;15597;50.914;6.638;2023-03-04T09:49:21;101751.81;;;8.56;56.25
28344;BME280;15597;50.914;6.638;2023-03-04T09:57:26;101744.88;;;8.55;55.99
28344;BME280;15597;50.914;6.638;2023-03-04T09:59:59;101737.94;;;8.60;56.15
28344;BME280;15597;50.914;6.638;2023-03-04T10:05:27;101741.44;;;8.66;55.68
28344;BME280;15597;50.914;6.638;2023-03-04T10:07:57;101735.31;;;8.59;56.04
28344;BME280;15597;50.914;6.638;2023-03-04T10:10:24;101737.06;;;8.61;56.12
28344;BME280;15597;50.914;6.638;2023-03-04T10:12:54;101744.88;;;8.58;56.25
28344;BME280;15597;50.914;6.638;2023-03-04T10:15:34;101737.94;;;8.60;56.07
28344;BME280;15597;50.914;6.638;2023-03-04T10:18:21;101737.94;;;8.64;55.97
28344;BME280;15597;50.914;6.638;2023-03-04T10:21:10;101725.78;;;8.66;55.87
28344;BME280;15597;50.914;6.638;2023-03-04T10:23:39;101724.06;;;8.74;55.81
28344;BME280;15597;50.914;6.638;2023-03-04T10:26:13;101724.09;;;8.77;56.11
28344;BME280;15597;50.914;6.638;2023-03-04T10:28:39;101721.47;;;8.82;55.81
28344;BME280;15597;50.914;6.638;2023-03-04T10:33:40;101713.63;;;8.79;56.00
28344;BME280;15597;50.914;6.638;2023-03-04T10:41:25;101717.16;;;8.90;55.91
28344;BME280;15597;50.914;6.638;2023-03-04T10:46:37;101713.72;;;8.96;55.76
28344;BME280;15597;50.914;6.638;2023-03-04T10:49:03;101705.88;;;8.97;56.05
28344;BME280;15597;50.914;6.638;2023-03-04T10:51:29;101710.25;;;9.00;55.85
28344;BME280;15597;50.914;6.638;2023-03-04T10:54:33;101707.59;;;8.95;55.59
28344;BME280;15597;50.914;6.638;2023-03-04T10:59:47;101707.66;;;9.01;55.62
28344;BME280;15597;50.914;6.638;2023-03-04T11:02:27;101710.25;;;9.03;55.94
28344;BME280;15597;50.914;6.638;2023-03-04T11:07:26;101698.09;;;9.11;55.54
28344;BME280;15597;50.914;6.638;2023-03-04T11:09:51;101703.31;;;9.17;55.68
28344;BME280;15597;50.914;6.638;2023-03-04T11:12:20;101705.06;;;9.21;55.69
28344;BME280;15597;50.914;6.638;2023-03-04T11:14:50;101697.28;;;9.26;55.89
28344;BME280;15597;50.914;6.638;2023-03-04T11:17:41;101693.78;;;9.26;55.74
28344;BME280;15597;50.914;6.638;2023-03-04T11:22:53;101689.44;;;9.37;55.12
28344;BME280;15597;50.914;6.638;2023-03-04T11:25:24;101692.91;;;9.39;55.57
28344;BME280;15597;50.914;6.638;2023-03-04T11:27:54;101686.81;;;9.40;55.45
28344;BME280;15597;50.914;6.638;2023-03-04T11:32:50;101678.97;;;9.46;54.85
28344;BME280;15597;50.914;6.638;2023-03-04T11:38:05;101677.25;;;9.42;54.98
28344;BME280;15597;50.914;6.638;2023-03-04T11:40:38;101680.72;;;9.44;55.31
28344;BME280;15597;50.914;6.638;2023-03-04T11:43:12;101671.16;;;9.37;55.10
28344;BME280;15597;50.914;6.638;2023-03-04T11:46:13;101666.78;;;9.27;55.33
28344;BME280;15597;50.914;6.638;2023-03-04T11:54:39;101676.34;;;9.21;55.59
28344;BME280;15597;50.914;6.638;2023-03-04T12:05:59;101661.56;;;9.20;55.86
28344;BME280;15597;50.914;6.638;2023-03-04T12:09:19;101648.50;;;9.27;55.84
28344;BME280;15597;50.914;6.638;2023-03-04T12:14:33;101632.84;;;9.39;55.99
28344;BME280;15597;50.914;6.638;2023-03-04T12:19:59;101631.97;;;9.46;55.86
28344;BME280;15597;50.914;6.638;2023-03-04T12:25:42;101622.38;;;9.56;55.51
28344;BME280;15597;50.914;6.638;2023-03-04T12:42:20;101607.59;;;9.57;55.40
28344;BME280;15597;50.914;6.638;2023-03-04T12:59:36;101584.94;;;9.37;56.00
28344;BME280;15597;50.914;6.638;2023-03-04T13:02:26;101584.94;;;9.37;56.35
28344;BME280;15597;50.914;6.638;2023-03-04T13:10:52;101571.88;;;9.46;56.49
28344;BME280;15597;50.914;6.638;2023-03-04T13:13:39;101566.66;;;9.48;56.54
28344;BME280;15597;50.914;6.638;2023-03-04T13:18:43;101573.63;;;9.55;56.36
28344;BME280;15597;50.914;6.638;2023-03-04T13:21:25;101564.03;;;9.59;56.24
28344;BME280;15597;50.914;6.638;2023-03-04T13:23:52;101562.28;;;9.64;56.21
28344;BME280;15597;50.914;6.638;2023-03-04T13:28:46;101564.88;;;9.69;56.14
28344;BME280;15597;50.914;6.638;2023-03-04T13:31:19;101565.75;;;9.74;55.92
28344;BME280;15597;50.914;6.638;2023-03-04T13:33:52;101556.16;;;9.76;56.18
28344;BME280;15597;50.914;6.638;2023-03-04T13:41:49;101551.78;;;9.86;55.81
28344;BME280;15597;50.914;6.638;2023-03-04T13:47:16;101551.75;;;9.95;55.34
28344;BME280;15597;50.914;6.638;2023-03-04T13:49:42;101548.25;;;9.91;56.12
28344;BME280;15597;50.914;6.638;2023-03-04T13:52:39;101537.81;;;9.93;55.84
28344;BME280;15597;50.914;6.638;2023-03-04T13:57:57;101532.53;;;10.02;55.65
28344;BME280;15597;50.914;6.638;2023-03-04T14:00:24;101533.38;;;10.06;56.01
28344;BME280;15597;50.914;6.638;2023-03-04T14:02:52;101525.56;;;10.07;55.52
28344;BME280;15597;50.914;6.638;2023-03-04T14:05:18;101529.03;;;10.09;55.49
28344;BME280;15597;50.914;6.638;2023-03-04T14:07:47;101522.03;;;10.15;54.90
28344;BME280;15597;50.914;6.638;2023-03-04T14:12:43;101513.25;;;10.25;55.06
28344;BME280;15597;50.914;6.638;2023-03-04T14:17:38;101513.22;;;10.31;55.38
28344;BME280;15597;50.914;6.638;2023-03-04T14:20:24;101514.09;;;10.30;55.38
28344;BME280;15597;50.914;6.638;2023-03-04T14:22:50;101515.84;;;10.33;54.64
28344;BME280;15597;50.914;6.638;2023-03-04T14:27:48;101511.47;;;10.33;54.34
28344;BME280;15597;50.914;6.638;2023-03-04T14:30:34;101512.38;;;10.29;54.89
28344;BME280;15597;50.914;6.638;2023-03-04T14:33:00;101514.97;;;10.32;54.80
28344;BME280;15597;50.914;6.638;2023-03-04T14:35:30;101510.63;;;10.30;54.49
28344;BME280;15597;50.914;6.638;2023-03-04T14:43:30;101494.06;;;10.26;54.63
28344;BME280;15597;50.914;6.638;2023-03-04T14:46:00;101487.09;;;10.25;54.74
28344;BME280;15597;50.914;6.638;2023-03-04T14:48:31;101488.84;;;10.26;54.58
28344;BME280;15597;50.914;6.638;2023-03-04T14:51:03;101483.63;;;10.28;55.00
28344;BME280;15597;50.914;6.638;2023-03-04T14:53:31;101487.06;;;10.31;54.51
28344;BME280;15597;50.914;6.638;2023-03-04T14:56:05;101478.34;;;10.32;54.70
28344;BME280;15597;50.914;6.638;2023-03-04T14:58:32;101478.34;;;10.32;54.53
28344;BME280;15597;50.914;6.638;2023-03-04T15:01:22;101473.16;;;10.26;54.77
28344;BME280;15597;50.914;6.638;2023-03-04T15:04:13;101471.44;;;10.22;54.11
28344;BME280;15597;50.914;6.638;2023-03-04T15:06:50;101471.44;;;10.22;54.41